Chanute Martin Johnson Airport
KCNU : now visible

Airfield :











YOU CAN JOIN US ON...

 
LOGIN :

Register | Disclaimer

   EN    FR    IT 

 









Legend :    VFR   Marginal VFR   IFR   Intensive IFR   Very Intensive IFR
Visi :
Ceiling :
>= 8 km
>= 3000ft
5 to 8 km
1000 to 3000 ft
1500m to 5 km
500 to 1000 ft
800 to 1500m
200 to 500 ft
< 800m
< 200 ft
Symbols :   Thunderstorms  Fog  Heavy snow  Heavy precipitations  Wind > 20 kt






- Airport Elevation : 1002 ft


KCNU - Chanute Martin Johnson

CURRENT METAR :
  • 281738Z AUTO 32005KT 10SM FEW008 SCT032 OVC055 21/19 A2996 RMK AO2 RAB04E30 P0001 T02110189

EXPIRED METARs :
  • 281729Z AUTO 32005KT 10SM -RA FEW006 BKN013 OVC055 21/19 A2996 RMK AO2 RAB04 P0001 T02110189
  • 281706Z AUTO 32004KT 7SM -RA SCT012 BKN025 OVC040 21/18 A2996 RMK AO2 RAB04 P0000 T02110183
  • 281608Z AUTO 34005KT 9SM -RA FEW008 BKN047 OVC085 21/19 A2995 RMK AO2 P0000 T02110189
  • 281558Z AUTO 33004KT 5SM -RA BR SCT012 BKN046 OVC060 21/18 A2995 RMK AO2 P0000 T02060183
  • 281555Z AUTO 33006KT 6SM -RA BR FEW007 BKN014 OVC060 21/18 A2995 RMK AO2 P0000 T02060183

TAF KCNU
Valid from the 28 at 18:00 until the 29 at 18:00 UTC


281722Z 2818/2918 33010KT P6SM VCSH OVC035
TEMPO 2818/2821 5SM SHRA OVC020
FM290000 35007KT P6SM BKN070
FM291200 36008KT P6SM SKC
KZKC FIR / North America



MET'MAP, your aeronautical weather chart ! - Copyright ORBIFLY December 2007 - Disclaimer

ORBIFLY MET'MAP TEAM :

Programming & Development : Alexandra Zaïnal
Concept & original design : Baudouin d'Aumeries
Assistance for programming : Marc-Olivier Méhu
Technical & hardware support : Manuel Goepfert

Contact : metmap@orbifly.com




SOURCES & CREDITS :

   NOAA       Earth
Advisory